Pagoda, Colorado
Current Conditions -  °F | °C
As of 11:53 PM on Sunday 21 Dec 2014 (Local Time) from KCAG Reporting Station
Light Snow Light Snow  
Wind Chill: 24°   Ceiling: 6000
Heat Index: 36°   Visibility: 9mi
Dew Point: 28°   Wind: 23mph
Humidity: 73%   Direction: 310°NW
Pressure: 29.83"   Gusts: 32mph
Location:  40.3278°N, 107.546°W
Report Text: KCAG 220653Z AUTO 31020G28KT 9SM -SN SCT044 OVC060 02/M02 A2983 RMK AO2 PK WND 31031/0623 UPB0558E07SNB07 SLP102 P0001 T00221022 400391072 $
Loading
Personal Weather Stations






























Interactive Weather Map New forecast layout! Learn more

10-Day Weather Forecast

Advertisements
Track Severe Weather on mobile